Noxen, Pennsylvania
Current Conditions -  °F | °C
As of 12:54 PM on Saturday 22 Nov 2014 (Local Time) from KAVP Reporting Station
Scattered Clouds Scattered Clouds  
Wind Chill: 33°   Ceiling: Unl
Heat Index: 40°   Visibility: 10mi
Dew Point: 11°   Wind: 13mph
Humidity: 31%   Direction: 250°WSW
Pressure: 30.24"   Gusts: NA
Location:  41.42°N, 76.06°W
Report Text: KAVP 221754Z AUTO 25011KT 10SM SCT080 04/M12 A3024 RMK AO2 SLP248 T00441117 10044 21094 58039
Loading
Personal Weather Stations






























Interactive Weather Map New forecast layout! Learn more

10-Day Weather Forecast

Advertisements
Track Severe Weather on mobile